< Typhoon 200017 2000 Season Typhoon 200019 >
Typhoon 200018 (SHANSHAN)
General InformationTrack Information on Google MapsDetailed Wind InformationList of All Images || Disaster Info.ResourceGoogle EarthGE AnimationAtom FeedGeoJSON
Detalied Best Track (Time Zone = UTC)
Year Month Day Hour Lat. Long. Pressure (hPa) Wind (kt) Class Image Chart
2000 9 17 06 14.2 173.6 1004 0 2 Image Chart
2000 9 17 12 14.5 173.1 1004 0 2 Image Chart
2000 9 17 18 14.8 172.6 1004 0 2 Image Chart
2000 9 18 00 15.1 172.1 1004 0 2 Image Chart
2000 9 18 06 15.5 171.8 1002 0 2 Image Chart
2000 9 18 12 16.0 171.0 998 35 3 Image Chart
2000 9 18 18 16.2 170.0 990 45 3 Image Chart
2000 9 19 00 16.6 169.7 985 50 4 Image Chart
2000 9 19 06 17.3 169.7 980 55 4 Image Chart
2000 9 19 12 18.0 170.3 970 65 5 Image Chart
2000 9 19 18 19.3 169.8 960 75 5 Image Chart
2000 9 20 00 19.9 168.5 950 80 5 Image Chart
2000 9 20 06 20.3 168.1 945 85 5 Image Chart
2000 9 20 12 20.9 167.2 940 85 5 Image Chart
2000 9 20 18 21.2 166.6 935 90 5 Image Chart
2000 9 21 00 21.6 166.2 935 90 5 Image Chart
2000 9 21 06 22.3 166.0 930 95 5 Image Chart
2000 9 21 12 22.9 165.6 925 95 5 Image Chart
2000 9 21 18 23.6 165.4 925 95 5 Image Chart
2000 9 22 00 24.2 165.3 925 95 5 Image Chart
2000 9 22 06 24.9 165.3 925 95 5 Image Chart
2000 9 22 12 25.5 165.6 935 90 5 Image Chart
2000 9 22 18 26.6 166.2 940 85 5 Image Chart
2000 9 23 00 27.7 166.5 945 85 5 Image Chart
2000 9 23 06 28.7 167.0 950 80 5 Image Chart
2000 9 23 12 30.1 168.3 955 75 5 Image Chart
2000 9 23 18 31.1 169.6 960 70 5 Image Chart
2000 9 24 00 32.7 171.8 960 70 5 Image Chart
2000 9 24 06 35.8 174.6 960 70 5 Image Chart
2000 9 24 12 38.9 177.8 955 70 5 Image Chart
2000 9 24 18 42.8 177.9 956 0 6 Image Chart
2000 9 25 00 43.3 175.6 956 0 6 Image Chart
2000 9 25 06 43.3 177.8 960 0 6 Image Chart
2000 9 25 12 44.4 180.0 964 0 6 Image Chart
2000 9 25 18 45.9 181.7 964 0 6 Image Chart
Japan Meteorological Agency Best Track Data | Correction Date : 2001-12-21
< Typhoon 200017 2000 Season Typhoon 200019 >

Help